createdAt,value
2019-02-14T00:00:45.761Z,33.28
2019-02-14T00:03:14.205Z,40.03
2019-02-14T00:05:42.574Z,33.95
2019-02-14T00:08:11.001Z,43.17
2019-02-14T00:10:39.703Z,38.92
2019-02-14T00:13:08.090Z,35.30
2019-02-14T00:15:36.538Z,40.48
2019-02-14T00:18:04.976Z,37.78
2019-02-14T00:20:33.327Z,36.83
2019-02-14T00:23:02.066Z,35.55
2019-02-14T00:25:30.437Z,29.48
2019-02-14T00:27:59.187Z,34.70
2019-02-14T00:30:27.591Z,31.33
2019-02-14T00:32:55.981Z,31.20
2019-02-14T00:35:25.328Z,33.42
2019-02-14T00:37:53.882Z,34.33
2019-02-14T00:40:22.318Z,29.82
2019-02-14T00:42:50.722Z,31.90
2019-02-14T00:45:19.116Z,29.20
2019-02-14T00:47:47.533Z,33.13
2019-02-14T00:50:15.921Z,32.88
2019-02-14T00:52:44.302Z,34.33
2019-02-14T00:55:12.732Z,28.73
2019-02-14T00:57:41.108Z,31.85
2019-02-14T01:00:10.702Z,31.12
2019-02-14T01:02:39.128Z,32.15
2019-02-14T01:05:07.875Z,28.77
2019-02-14T01:07:36.269Z,33.20
2019-02-14T01:10:05.913Z,31.65
2019-02-14T01:12:34.305Z,33.48
2019-02-14T01:15:02.683Z,29.52
2019-02-14T01:17:31.131Z,31.87
2019-02-14T01:19:59.524Z,36.50
2019-02-14T01:22:27.906Z,27.98
2019-02-14T01:24:56.329Z,29.52
2019-02-14T01:27:24.698Z,34.33
2019-02-14T01:29:53.094Z,26.40
2019-02-14T01:32:21.779Z,33.63
2019-02-14T01:34:50.161Z,32.95
2019-02-14T01:37:18.599Z,26.82
2019-02-14T01:39:46.988Z,28.47
2019-02-14T01:42:15.358Z,29.57
2019-02-14T01:44:43.740Z,30.23
2019-02-14T01:47:12.169Z,32.38
2019-02-14T01:49:40.550Z,35.15
2019-02-14T01:52:08.961Z,25.88
2019-02-14T01:54:37.372Z,26.97
2019-02-14T01:57:06.123Z,31.73
2019-02-14T01:59:34.507Z,31.60
2019-02-14T02:02:03.164Z,26.30
2019-02-14T02:04:31.578Z,32.98
2019-02-14T02:06:59.966Z,26.65
2019-02-14T02:09:28.341Z,32.60
2019-02-14T02:11:56.990Z,30.52
2019-02-14T02:14:25.377Z,26.40
2019-02-14T02:16:53.824Z,32.17
2019-02-14T02:19:22.203Z,31.62
2019-02-14T02:21:50.644Z,31.70
2019-02-14T02:24:19.065Z,32.53
2019-02-14T02:26:48.535Z,23.85
2019-02-14T02:29:22.744Z,26.45
2019-02-14T02:31:52.167Z,25.95
2019-02-14T02:34:21.519Z,34.23
2019-02-14T02:36:49.935Z,24.67
2019-02-14T02:39:18.318Z,30.08
2019-02-14T02:41:46.735Z,25.43
2019-02-14T02:44:15.120Z,28.65
2019-02-14T02:46:43.508Z,29.52
2019-02-14T02:49:11.935Z,30.08
2019-02-14T02:51:40.316Z,28.83
2019-02-14T02:54:08.707Z,33.08
2019-02-14T02:56:37.138Z,39.20
2019-02-14T02:59:05.872Z,31.62
2019-02-14T03:01:34.658Z,35.13
2019-02-14T03:04:03.075Z,29.75
2019-02-14T03:06:31.833Z,35.98
2019-02-14T03:09:00.200Z,40.52
2019-02-14T03:11:28.616Z,32.95
2019-02-14T03:13:56.999Z,32.73
2019-02-14T03:16:25.378Z,33.70
2019-02-14T03:18:53.768Z,27.55
2019-02-14T03:21:22.161Z,31.62
2019-02-14T03:23:50.674Z,28.98
2019-02-14T03:26:38.487Z,26.33
2019-02-14T03:29:06.966Z,30.50
2019-02-14T03:31:35.367Z,30.12
2019-02-14T03:34:03.751Z,31.87
2019-02-14T03:36:32.520Z,30.30
2019-02-14T03:39:00.894Z,27.82
2019-02-14T03:41:29.279Z,29.07
2019-02-14T03:43:57.713Z,28.87
2019-02-14T03:46:26.096Z,28.27
2019-02-14T03:48:54.481Z,27.13
2019-02-14T03:51:22.908Z,27.58
2019-02-14T03:53:51.290Z,32.13
2019-02-14T03:56:19.674Z,32.23
2019-02-14T03:58:48.438Z,26.73
2019-02-14T04:01:16.821Z,31.35
2019-02-14T04:03:45.200Z,26.30
2019-02-14T04:06:13.619Z,29.50
2019-02-14T04:08:42.023Z,26.33
2019-02-14T04:11:10.403Z,33.33
2019-02-14T04:13:38.847Z,25.72
2019-02-14T04:16:07.222Z,25.08
2019-02-14T04:18:35.620Z,27.30
2019-02-14T04:21:04.010Z,33.25
2019-02-14T04:23:32.384Z,27.77
2019-02-14T04:26:00.784Z,31.23
2019-02-14T04:28:29.178Z,31.93
2019-02-14T04:30:58.531Z,29.02
2019-02-14T04:33:27.355Z,30.30
2019-02-14T04:35:55.741Z,26.90
2019-02-14T04:38:24.134Z,29.23
2019-02-14T04:40:52.584Z,24.32
2019-02-14T04:43:21.156Z,24.72
2019-02-14T04:45:49.540Z,27.75
2019-02-14T04:48:17.919Z,28.32
2019-02-14T04:50:46.361Z,29.25
2019-02-14T04:53:14.731Z,25.95
2019-02-14T04:55:43.115Z,25.65
2019-02-14T04:58:11.522Z,27.42
2019-02-14T05:00:39.903Z,28.92
2019-02-14T05:03:08.347Z,32.15
2019-02-14T05:05:36.725Z,31.85
2019-02-14T05:08:05.114Z,36.45
2019-02-14T05:10:33.498Z,32.98
2019-02-14T05:13:01.894Z,30.75
2019-02-14T05:15:30.291Z,28.73
2019-02-14T05:17:58.681Z,28.95
2019-02-14T05:20:27.125Z,31.52
2019-02-14T05:22:55.490Z,27.93
2019-02-14T05:25:23.871Z,25.23
2019-02-14T05:27:52.266Z,32.03
2019-02-14T05:30:20.672Z,36.33
2019-02-14T05:32:49.070Z,25.40
2019-02-14T05:35:17.460Z,30.25
2019-02-14T05:37:46.140Z,27.15
2019-02-14T05:40:14.586Z,25.97
2019-02-14T05:42:43.933Z,22.50
2019-02-14T05:45:13.470Z,24.37
2019-02-14T05:47:42.274Z,27.85
2019-02-14T05:50:14.522Z,30.45
2019-02-14T05:52:42.949Z,32.80
2019-02-14T05:55:12.171Z,31.42
2019-02-14T05:57:41.696Z,35.92
2019-02-14T06:00:15.301Z,33.35
2019-02-14T06:02:43.703Z,27.27
2019-02-14T06:05:12.133Z,31.25
2019-02-14T06:07:41.465Z,35.80
2019-02-14T06:10:10.829Z,29.35
2019-02-14T06:12:39.275Z,33.75
2019-02-14T06:15:09.509Z,29.48
2019-02-14T06:17:37.944Z,26.23
2019-02-14T06:20:11.313Z,41.25
2019-02-14T06:22:39.748Z,38.05
2019-02-14T06:25:09.899Z,38.30
2019-02-14T06:27:38.290Z,26.62
2019-02-14T06:30:14.521Z,36.73
2019-02-14T06:32:42.917Z,30.60
2019-02-14T06:35:11.688Z,31.57
2019-02-14T06:37:44.582Z,27.02
2019-02-14T06:40:14.149Z,24.57
2019-02-14T06:42:42.539Z,31.02
2019-02-14T06:45:15.789Z,30.08
2019-02-14T06:47:44.221Z,23.30
2019-02-14T06:50:13.545Z,26.30
2019-02-14T06:52:42.952Z,24.72
2019-02-14T06:55:11.382Z,23.07
2019-02-14T06:57:39.748Z,24.63
2019-02-14T07:00:13.819Z,21.60
2019-02-14T07:02:42.321Z,24.65
2019-02-14T07:05:10.880Z,24.20
2019-02-14T07:07:40.520Z,23.87
2019-02-14T07:10:10.288Z,29.80
2019-02-14T07:12:38.739Z,22.87
2019-02-14T07:15:14.772Z,24.95
2019-02-14T07:17:43.228Z,25.55
2019-02-14T07:20:16.294Z,29.90
2019-02-14T07:22:44.702Z,33.05
2019-02-14T07:25:13.133Z,31.10
2019-02-14T07:27:41.536Z,30.37
2019-02-14T07:30:22.621Z,29.18
2019-02-14T07:32:52.015Z,25.10
2019-02-14T07:35:20.459Z,25.45
2019-02-14T07:37:48.897Z,31.87
2019-02-14T07:40:17.321Z,27.25
2019-02-14T07:42:46.642Z,23.70
2019-02-14T07:45:16.421Z,23.47
2019-02-14T07:47:44.802Z,21.25
2019-02-14T07:50:13.683Z,19.12
2019-02-14T07:52:42.102Z,30.08
2019-02-14T07:55:13.795Z,23.85
2019-02-14T07:57:42.166Z,26.43
2019-02-14T08:00:16.195Z,27.07
2019-02-14T08:02:44.596Z,27.42
2019-02-14T08:05:13.033Z,26.30
2019-02-14T08:07:41.748Z,24.65
2019-02-14T08:10:13.042Z,24.00
2019-02-14T08:12:41.435Z,25.65
2019-02-14T08:15:12.766Z,25.35
2019-02-14T08:17:41.346Z,25.55
2019-02-14T08:20:15.706Z,23.42
2019-02-14T08:22:44.091Z,28.05
2019-02-14T08:25:14.496Z,29.07
2019-02-14T08:27:42.884Z,23.42
2019-02-14T08:30:17.364Z,20.10
2019-02-14T08:32:45.785Z,25.55
2019-02-14T08:35:14.179Z,32.08
2019-02-14T08:37:45.427Z,24.32
2019-02-14T08:40:15.943Z,27.22
2019-02-14T08:42:44.328Z,29.37
2019-02-14T08:45:15.235Z,26.33
2019-02-14T08:47:43.664Z,25.27
2019-02-14T08:50:12.064Z,23.67
2019-02-14T08:52:40.453Z,23.15
2019-02-14T08:55:10.247Z,23.55
2019-02-14T08:57:38.707Z,26.90
2019-02-14T09:00:16.899Z,23.62
2019-02-14T09:02:45.294Z,22.35
2019-02-14T09:05:13.698Z,26.60
2019-02-14T09:07:42.069Z,25.20
2019-02-14T09:10:15.238Z,20.48
2019-02-14T09:12:43.678Z,21.17
2019-02-14T09:15:15.107Z,25.32
2019-02-14T09:17:43.483Z,25.77
2019-02-14T09:20:14.238Z,24.20
2019-02-14T09:22:42.665Z,24.30
2019-02-14T09:25:11.051Z,26.42
2019-02-14T09:27:39.453Z,23.55
2019-02-14T09:30:10.426Z,23.77
2019-02-14T09:32:38.878Z,21.68
2019-02-14T09:35:08.820Z,25.12
2019-02-14T09:37:37.270Z,26.77
2019-02-14T09:40:08.950Z,26.68
2019-02-14T09:42:37.337Z,24.50
2019-02-14T09:45:08.594Z,28.57
2019-02-14T09:47:37.297Z,22.27
2019-02-14T09:50:08.472Z,24.27
2019-02-14T09:52:36.854Z,29.07
2019-02-14T09:55:07.191Z,23.45
2019-02-14T09:57:35.568Z,31.23
2019-02-14T10:00:05.093Z,28.20
2019-02-14T10:02:33.481Z,23.52
2019-02-14T10:05:01.882Z,21.95
2019-02-14T10:07:30.363Z,27.48
2019-02-14T10:09:58.759Z,23.77
2019-02-14T10:12:27.151Z,22.32
2019-02-14T10:14:57.464Z,22.00
2019-02-14T10:17:28.551Z,20.27
2019-02-14T10:19:56.926Z,22.87
2019-02-14T10:22:25.382Z,28.07
2019-02-14T10:24:53.805Z,21.12
2019-02-14T10:27:22.188Z,20.90
2019-02-14T10:29:50.629Z,25.43
2019-02-14T10:32:19.039Z,21.30
2019-02-14T10:34:47.441Z,21.73
2019-02-14T10:37:15.866Z,29.67
2019-02-14T10:39:44.270Z,26.77
2019-02-14T10:42:12.650Z,19.65
2019-02-14T10:44:41.077Z,20.88
2019-02-14T10:47:09.474Z,23.38
2019-02-14T10:49:38.752Z,19.55
2019-02-14T10:52:09.857Z,24.20
2019-02-14T10:54:38.603Z,21.95
2019-02-14T10:57:06.978Z,18.95
2019-02-14T10:59:35.373Z,27.52
2019-02-14T11:02:03.837Z,23.42
2019-02-14T11:04:32.287Z,23.05
2019-02-14T11:07:00.674Z,22.42
2019-02-14T11:09:29.114Z,21.48
2019-02-14T11:11:57.529Z,20.15
2019-02-14T11:14:29.211Z,23.32
2019-02-14T11:16:58.041Z,22.90
2019-02-14T11:19:26.470Z,23.77
2019-02-14T11:21:54.854Z,22.02
2019-02-14T11:24:24.715Z,18.70
2019-02-14T11:26:53.170Z,17.35
2019-02-14T11:29:21.624Z,20.82
2019-02-14T11:31:50.072Z,18.87
2019-02-14T11:34:18.582Z,29.15
2019-02-14T11:36:46.962Z,24.00
2019-02-14T11:39:15.365Z,20.20
2019-02-14T11:41:44.699Z,20.60
2019-02-14T11:44:13.082Z,18.48
2019-02-14T11:46:41.472Z,22.32
2019-02-14T11:49:09.878Z,24.57
2019-02-14T11:51:39.260Z,20.10
2019-02-14T11:54:07.651Z,16.65
2019-02-14T11:56:36.020Z,20.72
2019-02-14T11:59:04.437Z,22.27
2019-02-14T12:01:32.810Z,22.37
2019-02-14T12:04:01.215Z,21.57
2019-02-14T12:06:29.667Z,20.45
2019-02-14T12:09:00.481Z,20.95
2019-02-14T12:11:28.472Z,21.77
2019-02-14T12:13:57.802Z,18.05
2019-02-14T12:16:26.207Z,17.98
2019-02-14T12:18:54.626Z,21.97
2019-02-14T12:21:23.011Z,16.57
2019-02-14T12:23:51.731Z,16.05
2019-02-14T12:26:20.150Z,18.70
2019-02-14T12:28:48.553Z,17.42
2019-02-14T12:31:18.679Z,19.07
2019-02-14T12:33:48.205Z,17.12
2019-02-14T12:36:16.678Z,21.70
2019-02-14T12:38:45.073Z,19.87
2019-02-14T12:41:13.463Z,19.07
2019-02-14T12:43:43.792Z,20.90
2019-02-14T12:46:12.230Z,29.15
2019-02-14T12:48:40.613Z,19.55
2019-02-14T12:51:09.010Z,15.70
2019-02-14T12:53:37.756Z,18.60
2019-02-14T12:56:06.248Z,16.85
2019-02-14T12:58:35.543Z,17.20
2019-02-14T13:01:04.302Z,23.92
2019-02-14T13:03:32.687Z,19.32
2019-02-14T13:06:01.098Z,15.88
2019-02-14T13:08:29.849Z,17.15
2019-02-14T13:10:58.239Z,16.87
2019-02-14T13:13:26.687Z,17.67
2019-02-14T13:15:55.130Z,21.62
2019-02-14T13:18:23.532Z,23.95
2019-02-14T13:20:51.980Z,25.45
2019-02-14T13:23:20.350Z,20.80
2019-02-14T13:25:48.731Z,16.37
2019-02-14T13:28:17.177Z,17.75
2019-02-14T13:30:45.681Z,14.93
2019-02-14T13:33:14.156Z,24.25
2019-02-14T13:35:42.556Z,21.25
2019-02-14T13:38:11.969Z,17.80
2019-02-14T13:40:40.414Z,23.62
2019-02-14T13:43:10.460Z,19.62
2019-02-14T13:45:39.054Z,14.07
2019-02-14T13:48:07.480Z,18.65
2019-02-14T13:50:35.915Z,19.02
2019-02-14T13:53:07.697Z,19.12
2019-02-14T13:55:36.175Z,14.13
2019-02-14T13:58:04.584Z,14.83
2019-02-14T14:00:34.944Z,13.45
2019-02-14T14:03:03.353Z,15.28
2019-02-14T14:05:32.754Z,13.90
2019-02-14T14:08:01.142Z,14.10
2019-02-14T14:10:29.560Z,13.58
2019-02-14T14:12:57.964Z,13.83
2019-02-14T14:15:27.321Z,12.43
2019-02-14T14:17:56.703Z,9.70
2019-02-14T14:20:30.701Z,13.58
2019-02-14T14:22:59.160Z,14.78
2019-02-14T14:25:28.449Z,14.05
2019-02-14T14:27:56.866Z,19.12
2019-02-14T14:30:25.298Z,14.15
2019-02-14T14:32:53.679Z,15.38
2019-02-14T14:35:22.502Z,12.88
2019-02-14T14:37:51.850Z,15.55
2019-02-14T14:40:20.580Z,14.23
2019-02-14T14:42:53.731Z,11.45
2019-02-14T14:45:26.331Z,13.48
2019-02-14T14:47:54.713Z,30.62
2019-02-14T14:50:23.114Z,11.33
2019-02-14T14:52:51.608Z,17.52
2019-02-14T14:55:20.142Z,18.10
2019-02-14T14:57:50.256Z,14.47
2019-02-14T15:00:20.345Z,13.20
2019-02-14T15:02:48.791Z,15.78
2019-02-14T15:05:18.835Z,14.10
2019-02-14T15:07:47.209Z,16.95
2019-02-14T15:10:15.636Z,13.85
2019-02-14T15:12:45.656Z,16.40
2019-02-14T15:15:14.084Z,13.20
2019-02-14T15:17:42.492Z,13.05
2019-02-14T15:20:11.150Z,15.75
2019-02-14T15:22:39.627Z,14.58
2019-02-14T15:25:07.983Z,15.90
2019-02-14T15:27:36.373Z,16.65
2019-02-14T15:30:08.635Z,17.48
2019-02-14T15:32:37.041Z,15.35
2019-02-14T15:35:07.487Z,17.15
2019-02-14T15:37:35.858Z,13.65
2019-02-14T15:40:09.330Z,16.77
2019-02-14T15:42:36.541Z,17.90
2019-02-14T15:45:06.679Z,17.75
2019-02-14T15:47:35.118Z,18.82
2019-02-14T15:50:06.852Z,18.17
2019-02-14T15:52:35.131Z,20.08
2019-02-14T15:55:03.566Z,20.50
2019-02-14T15:57:31.962Z,24.70
2019-02-14T16:00:00.353Z,19.85
2019-02-14T16:02:30.624Z,16.00
2019-02-14T16:04:58.864Z,17.35
2019-02-14T16:07:27.264Z,20.25
2019-02-14T16:09:55.705Z,19.48
2019-02-14T16:12:24.131Z,19.98
2019-02-14T16:14:54.545Z,23.38
2019-02-14T16:17:22.935Z,21.62
2019-02-14T16:19:51.324Z,20.95
2019-02-14T16:22:19.865Z,23.95
2019-02-14T16:24:48.338Z,26.42
2019-02-14T16:27:17.281Z,24.95
2019-02-14T16:29:47.218Z,28.02
2019-02-14T16:32:15.926Z,32.58
2019-02-14T16:34:44.290Z,36.98
2019-02-14T16:37:12.726Z,30.52
2019-02-14T16:39:41.148Z,28.35
2019-02-14T16:42:09.538Z,27.48
2019-02-14T16:44:37.961Z,27.52
2019-02-14T16:47:06.534Z,26.37
2019-02-14T16:49:34.936Z,26.23
2019-02-14T16:52:03.372Z,35.23
2019-02-14T16:54:35.701Z,21.73
2019-02-14T16:57:07.267Z,18.17
2019-02-14T16:59:37.021Z,20.10
2019-02-14T17:02:05.428Z,21.85
2019-02-14T17:04:39.868Z,19.70
2019-02-14T17:07:08.277Z,21.82
2019-02-14T17:09:36.668Z,19.05
2019-02-14T17:12:05.106Z,22.32
2019-02-14T17:14:34.444Z,23.10
2019-02-14T17:17:02.835Z,23.47
2019-02-14T17:19:31.254Z,19.32
2019-02-14T17:21:59.856Z,26.50
2019-02-14T17:24:28.266Z,22.48
2019-02-14T17:26:56.698Z,22.27
2019-02-14T17:29:25.218Z,24.92
2019-02-14T17:31:53.662Z,24.35
2019-02-14T17:34:22.102Z,25.75
2019-02-14T17:36:50.530Z,20.82
2019-02-14T17:39:18.974Z,24.32
2019-02-14T17:41:47.368Z,22.90
2019-02-14T17:44:15.820Z,23.00
2019-02-14T17:46:44.253Z,21.45
2019-02-14T17:49:13.866Z,21.42
2019-02-14T17:51:42.256Z,27.02
2019-02-14T17:54:10.671Z,24.67
2019-02-14T17:56:41.786Z,23.38
2019-02-14T17:59:10.688Z,21.60
2019-02-14T18:01:39.118Z,20.32
2019-02-14T18:04:07.599Z,20.88
2019-02-14T18:06:35.991Z,21.30
2019-02-14T18:09:05.437Z,20.55
2019-02-14T18:11:33.911Z,18.42
2019-02-14T18:14:02.313Z,21.75
2019-02-14T18:16:30.800Z,20.02
2019-02-14T18:18:59.152Z,20.82
2019-02-14T18:21:27.579Z,23.60
2019-02-14T18:23:55.966Z,22.07
2019-02-14T18:26:31.665Z,25.08
2019-02-14T18:29:12.215Z,21.75
2019-02-14T18:31:40.679Z,23.77
2019-02-14T18:34:09.087Z,22.70
2019-02-14T18:36:37.490Z,21.85
2019-02-14T18:39:06.703Z,24.75
2019-02-14T18:41:35.095Z,23.20
2019-02-14T18:44:03.801Z,24.75
2019-02-14T18:46:32.201Z,22.70
2019-02-14T18:49:00.591Z,24.75
2019-02-14T18:51:29.104Z,30.12
2019-02-14T18:53:57.509Z,25.10
2019-02-14T18:56:25.929Z,30.35
2019-02-14T18:58:54.327Z,27.60
2019-02-14T19:01:22.739Z,27.45
2019-02-14T19:03:52.074Z,27.13
2019-02-14T19:06:20.494Z,24.90
2019-02-14T19:08:48.890Z,26.40
2019-02-14T19:11:17.708Z,27.07
2019-02-14T19:13:47.131Z,27.25
2019-02-14T19:16:15.524Z,25.15
2019-02-14T19:18:43.956Z,27.30
2019-02-14T19:21:12.413Z,24.95
2019-02-14T19:23:40.826Z,23.90
2019-02-14T19:26:10.212Z,23.92
2019-02-14T19:28:38.640Z,32.45
2019-02-14T19:31:07.048Z,25.08
2019-02-14T19:33:36.806Z,25.60
2019-02-14T19:36:05.259Z,24.23
2019-02-14T19:38:35.040Z,26.07
2019-02-14T19:41:03.498Z,27.10
2019-02-14T19:43:31.966Z,25.27
2019-02-14T19:46:00.346Z,25.35
2019-02-14T19:48:29.744Z,29.05
2019-02-14T19:50:58.487Z,26.25
2019-02-14T19:53:26.890Z,26.48
2019-02-14T19:55:55.320Z,26.02
2019-02-14T19:58:23.733Z,27.42
2019-02-14T20:00:52.128Z,25.50
2019-02-14T20:03:20.583Z,23.47
2019-02-14T20:05:49.003Z,26.45
2019-02-14T20:08:17.505Z,25.05
2019-02-14T20:10:45.922Z,27.58
2019-02-14T20:13:14.322Z,27.32
2019-02-14T20:15:42.729Z,26.70
2019-02-14T20:18:11.111Z,25.45
2019-02-14T20:20:39.557Z,24.55
2019-02-14T20:23:07.965Z,26.90
2019-02-14T20:25:36.689Z,26.37
2019-02-14T20:28:05.153Z,26.57
2019-02-14T20:30:33.599Z,27.15
2019-02-14T20:33:04.802Z,27.55
2019-02-14T20:35:32.594Z,24.52
2019-02-14T20:38:01.089Z,27.20
2019-02-14T20:40:29.505Z,27.98
2019-02-14T20:42:57.962Z,27.95
2019-02-14T20:45:26.397Z,30.65
2019-02-14T20:47:57.213Z,25.17
2019-02-14T20:50:26.731Z,26.20
2019-02-14T20:52:55.110Z,25.92
2019-02-14T20:55:25.721Z,27.55
2019-02-14T20:57:56.092Z,28.62
2019-02-14T21:00:35.208Z,29.40
2019-02-14T21:03:03.688Z,28.35
2019-02-14T21:05:32.460Z,30.92
2019-02-14T21:08:00.858Z,27.27
2019-02-14T21:10:29.346Z,31.40
2019-02-14T21:12:58.697Z,28.45
2019-02-14T21:15:27.073Z,31.77
2019-02-14T21:17:56.512Z,26.60
2019-02-14T21:20:24.909Z,28.47
2019-02-14T21:22:54.269Z,28.12
2019-02-14T21:25:31.754Z,30.55
2019-02-14T21:28:05.950Z,27.25
2019-02-14T21:30:35.763Z,27.00
2019-02-14T21:33:04.490Z,27.73
2019-02-14T21:35:33.990Z,30.02
2019-02-14T21:38:16.490Z,28.30
2019-02-14T21:40:46.945Z,28.45
2019-02-14T21:43:15.423Z,26.25
2019-02-14T21:45:43.858Z,28.32
2019-02-14T21:48:12.247Z,29.77
2019-02-14T21:50:40.673Z,29.87
2019-02-14T21:53:09.103Z,29.12
2019-02-14T21:55:37.570Z,30.05
2019-02-14T21:58:06.375Z,29.85
2019-02-14T22:00:34.948Z,29.07
2019-02-14T22:03:03.348Z,32.08
2019-02-14T22:05:31.743Z,31.77
2019-02-14T22:08:00.167Z,31.97
2019-02-14T22:10:28.712Z,32.88
2019-02-14T22:12:57.097Z,32.45
2019-02-14T22:15:27.797Z,34.38
2019-02-14T22:17:56.190Z,33.63
2019-02-14T22:20:24.566Z,31.30
2019-02-14T22:22:52.964Z,31.93
2019-02-14T22:25:21.395Z,33.00
2019-02-14T22:27:49.807Z,34.53
2019-02-14T22:30:18.682Z,34.88
2019-02-14T22:32:47.087Z,37.75
2019-02-14T22:35:15.484Z,33.90
2019-02-14T22:37:43.926Z,32.63
2019-02-14T22:40:13.401Z,33.67
2019-02-14T22:42:47.045Z,40.30
2019-02-14T22:45:13.659Z,37.25
2019-02-14T22:47:42.609Z,42.03
2019-02-14T22:50:13.782Z,36.53
2019-02-14T22:52:43.092Z,39.50
2019-02-14T22:55:12.733Z,41.63
2019-02-14T22:57:41.132Z,38.50
2019-02-14T23:00:32.163Z,43.87
2019-02-14T23:03:00.597Z,38.15
2019-02-14T23:05:28.983Z,38.80
2019-02-14T23:07:57.677Z,39.33
2019-02-14T23:10:26.133Z,39.33
2019-02-14T23:12:56.132Z,40.80
2019-02-14T23:15:24.712Z,39.88
2019-02-14T23:17:53.116Z,43.28
2019-02-14T23:20:21.546Z,47.17
2019-02-14T23:22:49.999Z,47.10
2019-02-14T23:25:18.407Z,46.25
2019-02-14T23:27:46.843Z,49.03
2019-02-14T23:30:16.127Z,48.73
2019-02-14T23:32:44.514Z,51.58
2019-02-14T23:35:12.924Z,52.13
2019-02-14T23:37:41.305Z,53.55
2019-02-14T23:40:09.744Z,51.83
2019-02-14T23:42:39.064Z,55.20
2019-02-14T23:45:09.298Z,61.35
2019-02-14T23:47:37.711Z,58.40
2019-02-14T23:50:08.375Z,54.88
2019-02-14T23:52:36.789Z,59.67
2019-02-14T23:55:06.893Z,57.80
2019-02-14T23:57:35.306Z,54.65
